createdAt,value
2019-05-25T00:01:27.636Z,13.27
2019-05-25T00:03:56.026Z,12.60
2019-05-25T00:06:24.389Z,10.50
2019-05-25T00:08:52.795Z,10.60
2019-05-25T00:11:21.138Z,11.27
2019-05-25T00:13:49.517Z,12.07
2019-05-25T00:16:17.936Z,10.20
2019-05-25T00:18:46.685Z,11.23
2019-05-25T00:21:15.048Z,8.77
2019-05-25T00:23:43.835Z,10.43
2019-05-25T00:26:12.562Z,10.47
2019-05-25T00:28:41.034Z,10.87
2019-05-25T00:31:09.789Z,10.17
2019-05-25T00:33:38.142Z,9.33
2019-05-25T00:36:06.761Z,9.43
2019-05-25T00:38:35.098Z,9.50
2019-05-25T00:41:04.133Z,10.23
2019-05-25T00:43:32.823Z,8.90
2019-05-25T00:46:01.518Z,9.97
2019-05-25T00:48:30.135Z,9.60
2019-05-25T00:50:58.474Z,9.40
2019-05-25T00:53:26.818Z,9.10
2019-05-25T00:55:55.546Z,8.07
2019-05-25T00:58:23.890Z,6.87
2019-05-25T01:00:52.224Z,7.53
2019-05-25T01:03:20.584Z,6.60
2019-05-25T01:05:48.948Z,7.20
2019-05-25T01:08:17.316Z,7.77
2019-05-25T01:10:45.651Z,7.73
2019-05-25T01:13:14.315Z,7.30
2019-05-25T01:15:43.245Z,7.43
2019-05-25T01:18:11.979Z,7.10
2019-05-25T01:20:40.331Z,7.30
2019-05-25T01:23:09.077Z,7.60
2019-05-25T01:25:37.409Z,6.73
2019-05-25T01:28:05.732Z,6.30
2019-05-25T01:30:34.498Z,5.80
2019-05-25T01:33:02.852Z,6.87
2019-05-25T01:35:31.203Z,6.00
2019-05-25T01:37:59.840Z,6.90
2019-05-25T01:40:28.175Z,6.70
2019-05-25T01:42:56.498Z,7.00
2019-05-25T01:45:24.910Z,6.90
2019-05-25T01:47:53.247Z,6.63
2019-05-25T01:50:21.615Z,7.47
2019-05-25T01:52:49.931Z,6.93
2019-05-25T01:55:18.273Z,6.60
2019-05-25T01:57:46.599Z,7.67
2019-05-25T02:00:15.887Z,7.40
2019-05-25T02:02:44.197Z,7.80
2019-05-25T02:05:12.559Z,7.83
2019-05-25T02:07:40.883Z,7.77
2019-05-25T02:10:09.809Z,7.30
2019-05-25T02:12:38.111Z,7.33
2019-05-25T02:15:06.855Z,6.80
2019-05-25T02:17:35.248Z,7.20
2019-05-25T02:20:04.016Z,7.00
2019-05-25T02:22:32.351Z,8.00
2019-05-25T02:25:16.286Z,6.30
2019-05-25T02:27:31.054Z,6.13
2019-05-25T02:30:00.535Z,7.00
2019-05-25T02:32:28.948Z,7.23
2019-05-25T02:34:57.308Z,6.40
2019-05-25T02:37:25.630Z,5.97
2019-05-25T02:39:53.961Z,7.30
2019-05-25T02:42:22.941Z,6.93
2019-05-25T02:44:51.279Z,7.13
2019-05-25T02:47:19.618Z,6.60
2019-05-25T02:49:47.951Z,6.20
2019-05-25T02:52:16.280Z,6.87
2019-05-25T02:54:44.620Z,6.40
2019-05-25T02:57:12.955Z,6.00
2019-05-25T02:59:41.294Z,5.73
2019-05-25T03:02:09.609Z,7.13
2019-05-25T03:04:37.938Z,6.50
2019-05-25T03:07:06.914Z,6.30
2019-05-25T03:09:36.351Z,6.00
2019-05-25T03:12:04.800Z,5.87
2019-05-25T03:14:33.535Z,6.60
2019-05-25T03:17:01.955Z,6.53
2019-05-25T03:19:30.640Z,6.87
2019-05-25T03:21:58.972Z,7.03
2019-05-25T03:24:27.285Z,7.00
2019-05-25T03:26:55.624Z,8.33
2019-05-25T03:29:25.581Z,7.40
2019-05-25T03:31:53.906Z,6.50
2019-05-25T03:34:22.235Z,7.67
2019-05-25T03:36:50.571Z,7.00
2019-05-25T03:39:18.885Z,6.77
2019-05-25T03:41:47.213Z,7.53
2019-05-25T03:44:15.632Z,7.20
2019-05-25T03:46:43.986Z,8.90
2019-05-25T03:49:12.394Z,9.60
2019-05-25T03:51:41.064Z,9.13
2019-05-25T03:54:09.468Z,11.53
2019-05-25T03:56:37.942Z,10.90
2019-05-25T03:59:06.256Z,12.60
2019-05-25T04:01:34.599Z,11.50
2019-05-25T04:04:02.914Z,12.43
2019-05-25T04:06:31.550Z,11.60
2019-05-25T04:08:59.862Z,11.40
2019-05-25T04:11:28.201Z,13.10
2019-05-25T04:13:56.556Z,12.77
2019-05-25T04:16:24.920Z,12.60
2019-05-25T04:18:53.244Z,14.13
2019-05-25T04:21:21.578Z,20.00
2019-05-25T04:23:49.899Z,19.47
2019-05-25T04:26:22.511Z,19.23
2019-05-25T04:28:48.308Z,18.37
2019-05-25T04:31:16.994Z,19.90
2019-05-25T04:33:45.695Z,19.83
2019-05-25T04:36:14.082Z,20.67
2019-05-25T04:38:42.430Z,24.80
2019-05-25T04:41:10.855Z,24.37
2019-05-25T04:43:39.451Z,24.23
2019-05-25T04:46:08.505Z,23.70
2019-05-25T04:48:37.202Z,21.90
2019-05-25T04:51:05.609Z,19.53
2019-05-25T04:53:34.295Z,18.50
2019-05-25T04:56:02.636Z,17.40
2019-05-25T04:58:30.966Z,15.17
2019-05-25T05:00:59.595Z,16.00
2019-05-25T05:03:27.914Z,16.07
2019-05-25T05:05:56.249Z,14.33
2019-05-25T05:08:24.591Z,16.17
2019-05-25T05:10:52.911Z,13.97
2019-05-25T05:13:21.376Z,13.30
2019-05-25T05:15:50.005Z,13.90
2019-05-25T05:18:18.369Z,14.27
2019-05-25T05:20:46.696Z,13.97
2019-05-25T05:23:15.055Z,13.27
2019-05-25T05:25:43.398Z,14.90
2019-05-25T05:28:12.387Z,13.73
2019-05-25T05:30:40.813Z,16.20
2019-05-25T05:33:09.278Z,15.60
2019-05-25T05:35:38.975Z,13.30
2019-05-25T05:38:07.889Z,13.60
2019-05-25T05:40:36.608Z,14.40
2019-05-25T05:43:08.276Z,14.50
2019-05-25T05:45:38.606Z,12.97
2019-05-25T05:48:09.684Z,12.67
2019-05-25T05:50:39.345Z,13.50
2019-05-25T05:53:07.746Z,11.57
2019-05-25T05:55:36.164Z,10.60
2019-05-25T05:58:04.511Z,10.90
2019-05-25T06:00:32.846Z,9.30
2019-05-25T06:03:01.484Z,8.47
2019-05-25T06:05:29.923Z,9.20
2019-05-25T06:07:58.259Z,7.47
2019-05-25T06:10:26.705Z,6.83
2019-05-25T06:12:55.045Z,7.10
2019-05-25T06:15:23.378Z,7.67
2019-05-25T06:17:51.791Z,7.70
2019-05-25T06:20:20.203Z,7.27
2019-05-25T06:22:48.529Z,6.60
2019-05-25T06:25:16.975Z,7.27
2019-05-25T06:27:45.390Z,7.90
2019-05-25T06:30:14.050Z,7.43
2019-05-25T06:32:42.982Z,7.23
2019-05-25T06:35:11.485Z,8.07
2019-05-25T06:37:40.187Z,7.50
2019-05-25T06:40:08.706Z,7.33
2019-05-25T06:42:37.062Z,6.93
2019-05-25T06:45:06.011Z,7.97
2019-05-25T06:47:34.434Z,6.23
2019-05-25T06:50:02.864Z,7.00
2019-05-25T06:52:31.207Z,7.07
2019-05-25T06:54:59.526Z,7.60
2019-05-25T06:57:42.035Z,6.27
2019-05-25T06:59:57.992Z,6.33
2019-05-25T07:02:26.694Z,6.03
2019-05-25T07:04:55.023Z,6.87
2019-05-25T07:07:23.667Z,6.73
2019-05-25T07:09:52.047Z,6.33
2019-05-25T07:12:20.514Z,6.70
2019-05-25T07:14:49.225Z,6.07
2019-05-25T07:17:17.640Z,5.83
2019-05-25T07:19:46.274Z,7.53
2019-05-25T07:22:14.589Z,6.43
2019-05-25T07:24:42.925Z,6.33
2019-05-25T07:27:12.029Z,6.20
2019-05-25T07:29:40.383Z,7.33
2019-05-25T07:32:08.786Z,6.87
2019-05-25T07:34:37.158Z,6.10
2019-05-25T07:37:05.892Z,6.67
2019-05-25T07:39:34.274Z,6.83
2019-05-25T07:42:02.957Z,7.17
2019-05-25T07:44:31.615Z,6.87
2019-05-25T07:47:00.028Z,7.17
2019-05-25T07:49:28.383Z,7.87
2019-05-25T07:51:56.839Z,7.40
2019-05-25T07:54:25.212Z,7.13
2019-05-25T07:56:53.539Z,7.30
2019-05-25T07:59:21.882Z,7.30
2019-05-25T08:01:50.320Z,7.60
2019-05-25T08:04:18.657Z,7.73
2019-05-25T08:06:47.137Z,7.00
2019-05-25T08:09:15.702Z,6.83
2019-05-25T08:11:44.323Z,8.20
2019-05-25T08:14:12.654Z,7.43
2019-05-25T08:16:41.384Z,6.73
2019-05-25T08:19:13.987Z,6.83
2019-05-25T08:21:42.674Z,7.33
2019-05-25T08:24:11.165Z,7.30
2019-05-25T08:26:39.515Z,7.40
2019-05-25T08:29:07.841Z,7.50
2019-05-25T08:31:36.151Z,6.37
2019-05-25T08:34:04.576Z,6.20
2019-05-25T08:36:33.236Z,6.57
2019-05-25T08:39:01.642Z,5.73
2019-05-25T08:41:30.087Z,6.33
2019-05-25T08:43:58.428Z,6.33
2019-05-25T08:46:30.739Z,6.10
2019-05-25T08:48:59.154Z,6.43
2019-05-25T08:51:27.506Z,5.60
2019-05-25T08:53:55.826Z,6.00
2019-05-25T08:56:24.153Z,5.10
2019-05-25T08:58:55.462Z,5.33
2019-05-25T09:01:22.549Z,6.50
2019-05-25T09:03:51.243Z,5.83
2019-05-25T09:06:19.640Z,4.63
2019-05-25T09:08:48.625Z,4.97
2019-05-25T09:11:18.033Z,5.20
2019-05-25T09:13:46.401Z,5.77
2019-05-25T09:16:14.730Z,5.20
2019-05-25T09:18:43.047Z,5.47
2019-05-25T09:21:11.397Z,5.00
2019-05-25T09:23:40.065Z,6.57
2019-05-25T09:26:08.482Z,5.77
2019-05-25T09:28:36.866Z,6.70
2019-05-25T09:31:05.221Z,7.13
2019-05-25T09:33:33.591Z,6.90
2019-05-25T09:36:01.925Z,6.23
2019-05-25T09:38:30.510Z,6.60
2019-05-25T09:40:58.968Z,6.03
2019-05-25T09:43:27.378Z,5.70
2019-05-25T09:45:56.060Z,6.20
2019-05-25T09:48:24.711Z,6.87
2019-05-25T09:50:53.055Z,5.23
2019-05-25T09:53:21.875Z,4.97
2019-05-25T09:55:50.222Z,5.97
2019-05-25T09:58:18.674Z,5.33
2019-05-25T10:00:47.119Z,6.63
2019-05-25T10:03:15.574Z,5.30
2019-05-25T10:05:43.905Z,5.37
2019-05-25T10:08:12.355Z,5.67
2019-05-25T10:10:40.762Z,5.17
2019-05-25T10:13:09.103Z,5.23
2019-05-25T10:15:37.478Z,5.93
2019-05-25T10:18:05.785Z,5.70
2019-05-25T10:20:35.538Z,5.80
2019-05-25T10:23:03.926Z,5.90
2019-05-25T10:25:32.273Z,5.80
2019-05-25T10:28:00.618Z,5.00
2019-05-25T10:30:28.955Z,4.57
2019-05-25T10:32:57.358Z,4.93
2019-05-25T10:35:26.227Z,4.33
2019-05-25T10:37:54.551Z,4.60
2019-05-25T10:40:23.220Z,4.67
2019-05-25T10:42:51.650Z,5.30
2019-05-25T10:45:20.466Z,4.33
2019-05-25T10:47:49.072Z,3.90
2019-05-25T10:50:18.264Z,4.17
2019-05-25T10:52:46.847Z,3.80
2019-05-25T10:55:15.259Z,4.13
2019-05-25T10:57:43.908Z,3.73
2019-05-25T11:00:13.017Z,3.70
2019-05-25T11:02:41.420Z,4.40
2019-05-25T11:05:10.582Z,5.50
2019-05-25T11:07:39.268Z,7.00
2019-05-25T11:10:08.273Z,7.03
2019-05-25T11:12:39.550Z,6.10
2019-05-25T11:15:09.491Z,6.40
2019-05-25T11:17:37.920Z,7.07
2019-05-25T11:20:06.245Z,5.87
2019-05-25T11:22:34.587Z,6.87
2019-05-25T11:25:02.911Z,5.90
2019-05-25T11:27:31.249Z,6.27
2019-05-25T11:30:08.573Z,6.40
2019-05-25T11:32:29.628Z,6.40
2019-05-25T11:34:58.070Z,6.17
2019-05-25T11:37:26.416Z,6.80
2019-05-25T11:39:54.734Z,5.40
2019-05-25T11:42:23.105Z,4.57
2019-05-25T11:44:51.657Z,5.30
2019-05-25T11:47:20.015Z,5.20
2019-05-25T11:49:48.699Z,4.43
2019-05-25T11:52:17.035Z,4.30
2019-05-25T11:54:45.350Z,4.00
2019-05-25T11:57:13.786Z,4.33
2019-05-25T11:59:42.179Z,4.03
2019-05-25T12:02:10.521Z,4.40
2019-05-25T12:04:39.480Z,4.97
2019-05-25T12:07:08.205Z,4.77
2019-05-25T12:09:36.723Z,4.33
2019-05-25T12:12:05.133Z,4.50
2019-05-25T12:14:33.815Z,3.77
2019-05-25T12:17:02.179Z,4.47
2019-05-25T12:19:30.565Z,4.43
2019-05-25T12:21:59.223Z,4.30
2019-05-25T12:24:27.554Z,3.93
2019-05-25T12:26:55.896Z,4.40
2019-05-25T12:29:24.215Z,4.37
2019-05-25T12:32:03.364Z,4.13
2019-05-25T12:34:23.015Z,4.00
2019-05-25T12:36:51.590Z,4.70
2019-05-25T12:39:20.178Z,3.83
2019-05-25T12:41:48.521Z,3.83
2019-05-25T12:44:16.974Z,3.50
2019-05-25T12:46:45.647Z,4.57
2019-05-25T12:49:13.994Z,3.93
2019-05-25T12:51:42.633Z,3.90
2019-05-25T12:54:10.956Z,4.03
2019-05-25T12:56:39.642Z,3.40
2019-05-25T12:59:08.014Z,3.83
2019-05-25T13:01:36.735Z,4.10
2019-05-25T13:04:05.223Z,3.77
2019-05-25T13:06:34.019Z,3.67
2019-05-25T13:09:02.695Z,3.23
2019-05-25T13:11:31.096Z,3.40
2019-05-25T13:14:13.719Z,3.43
2019-05-25T13:16:29.474Z,3.47
2019-05-25T13:18:58.146Z,3.60
2019-05-25T13:21:26.511Z,3.40
2019-05-25T13:23:55.219Z,3.30
2019-05-25T13:26:23.582Z,4.07
2019-05-25T13:28:52.295Z,4.23
2019-05-25T13:31:20.996Z,3.50
2019-05-25T13:33:49.739Z,3.67
2019-05-25T13:36:18.071Z,3.23
2019-05-25T13:38:46.495Z,2.90
2019-05-25T13:41:14.884Z,3.33
2019-05-25T13:43:43.251Z,3.37
2019-05-25T13:46:11.660Z,3.07
2019-05-25T13:48:39.991Z,3.77
2019-05-25T13:51:08.335Z,3.40
2019-05-25T13:53:36.691Z,3.47
2019-05-25T13:56:05.289Z,2.73
2019-05-25T13:58:33.668Z,3.00
2019-05-25T14:01:01.997Z,3.70
2019-05-25T14:03:30.399Z,4.03
2019-05-25T14:05:58.715Z,3.33
2019-05-25T14:08:27.064Z,3.27
2019-05-25T14:10:55.386Z,3.90
2019-05-25T14:13:23.745Z,4.60
2019-05-25T14:16:06.258Z,3.73
2019-05-25T14:18:22.190Z,3.27
2019-05-25T14:20:50.583Z,3.03
2019-05-25T14:23:19.046Z,3.37
2019-05-25T14:25:47.524Z,4.87
2019-05-25T14:28:16.255Z,3.83
2019-05-25T14:30:44.569Z,4.30
2019-05-25T14:33:12.926Z,4.40
2019-05-25T14:35:41.631Z,4.27
2019-05-25T14:38:10.366Z,4.47
2019-05-25T14:40:39.004Z,4.07
2019-05-25T14:43:07.359Z,3.80
2019-05-25T14:45:35.716Z,4.27
2019-05-25T14:48:04.166Z,3.80
2019-05-25T14:50:32.888Z,4.83
2019-05-25T14:53:01.255Z,3.60
2019-05-25T14:55:29.580Z,3.90
2019-05-25T14:57:57.932Z,4.57
2019-05-25T15:00:26.649Z,3.83
2019-05-25T15:02:55.107Z,3.70
2019-05-25T15:05:23.418Z,3.63
2019-05-25T15:07:52.105Z,3.40
2019-05-25T15:10:20.428Z,3.83
2019-05-25T15:12:48.764Z,4.37
2019-05-25T15:15:17.499Z,4.67
2019-05-25T15:17:45.827Z,4.80
2019-05-25T15:20:14.591Z,4.53
2019-05-25T15:22:46.656Z,4.00
2019-05-25T15:25:14.008Z,3.37
2019-05-25T15:27:42.323Z,3.80
2019-05-25T15:30:11.102Z,4.20
2019-05-25T15:32:39.787Z,3.73
2019-05-25T15:35:08.489Z,3.80
2019-05-25T15:37:36.996Z,4.30
2019-05-25T15:40:05.964Z,3.80
2019-05-25T15:42:34.322Z,4.77
2019-05-25T15:45:02.683Z,5.20
2019-05-25T15:47:31.012Z,4.50
2019-05-25T15:49:59.639Z,4.17
2019-05-25T15:52:28.069Z,4.00
2019-05-25T15:54:56.703Z,4.80
2019-05-25T15:57:25.042Z,4.43
2019-05-25T15:59:55.063Z,3.47
2019-05-25T16:02:36.285Z,3.90
2019-05-25T16:04:53.623Z,4.10
2019-05-25T16:07:22.331Z,4.23
2019-05-25T16:09:51.052Z,4.23
2019-05-25T16:12:19.566Z,4.17
2019-05-25T16:14:47.886Z,4.77
2019-05-25T16:17:16.474Z,3.40
2019-05-25T16:19:44.827Z,3.67
2019-05-25T16:22:13.137Z,3.03
2019-05-25T16:24:41.498Z,3.60
2019-05-25T16:27:09.809Z,3.27
2019-05-25T16:29:38.159Z,2.87
2019-05-25T16:32:06.879Z,3.57
2019-05-25T16:34:35.211Z,2.90
2019-05-25T16:37:03.690Z,3.00
2019-05-25T16:39:32.047Z,3.47
2019-05-25T16:42:00.366Z,2.70
2019-05-25T16:44:29.236Z,3.10
2019-05-25T16:46:57.742Z,3.30
2019-05-25T16:49:26.107Z,2.57
2019-05-25T16:51:54.582Z,2.60
2019-05-25T16:54:23.622Z,2.43
2019-05-25T16:56:51.934Z,2.43
2019-05-25T16:59:20.254Z,2.20
2019-05-25T17:01:48.973Z,2.00
2019-05-25T17:04:17.583Z,2.30
2019-05-25T17:06:45.935Z,1.70
2019-05-25T17:09:14.252Z,1.80
2019-05-25T17:11:42.890Z,1.63
2019-05-25T17:14:11.193Z,2.20
2019-05-25T17:16:39.599Z,2.27
2019-05-25T17:19:07.915Z,1.80
2019-05-25T17:21:36.313Z,2.90
2019-05-25T17:24:04.654Z,2.23
2019-05-25T17:26:32.977Z,1.97
2019-05-25T17:29:01.679Z,2.33
2019-05-25T17:31:30.004Z,2.43
2019-05-25T17:33:58.786Z,2.20
2019-05-25T17:36:27.265Z,2.17
2019-05-25T17:38:55.604Z,1.80
2019-05-25T17:41:23.967Z,2.10
2019-05-25T17:43:52.298Z,2.80
2019-05-25T17:46:20.650Z,2.03
2019-05-25T17:48:49.051Z,2.60
2019-05-25T17:51:17.385Z,2.53
2019-05-25T17:53:45.743Z,2.57
2019-05-25T17:56:14.067Z,2.43
2019-05-25T17:58:42.828Z,1.80
2019-05-25T18:01:11.214Z,1.80
2019-05-25T18:03:39.532Z,1.80
2019-05-25T18:06:07.870Z,1.87
2019-05-25T18:08:36.195Z,2.30
2019-05-25T18:11:04.615Z,2.00
2019-05-25T18:13:32.939Z,2.10
2019-05-25T18:16:01.270Z,2.43
2019-05-25T18:18:30.000Z,1.80
2019-05-25T18:20:58.668Z,2.20
2019-05-25T18:23:27.019Z,1.80
2019-05-25T18:25:55.434Z,1.90
2019-05-25T18:28:24.209Z,1.40
2019-05-25T18:30:52.796Z,2.23
2019-05-25T18:33:21.207Z,1.77
2019-05-25T18:35:49.558Z,2.00
2019-05-25T18:38:17.907Z,1.90
2019-05-25T18:40:46.770Z,2.13
2019-05-25T18:43:15.100Z,3.30
2019-05-25T18:45:43.498Z,2.77
2019-05-25T18:48:12.031Z,2.37
2019-05-25T18:50:40.376Z,2.83
2019-05-25T18:53:08.727Z,2.37
2019-05-25T18:55:37.042Z,2.10
2019-05-25T18:58:05.492Z,2.13
2019-05-25T19:00:33.900Z,2.40
2019-05-25T19:03:02.414Z,2.10
2019-05-25T19:05:30.748Z,2.60
2019-05-25T19:07:59.454Z,3.00
2019-05-25T19:10:28.201Z,2.10
2019-05-25T19:12:56.534Z,2.90
2019-05-25T19:15:26.724Z,2.77
2019-05-25T19:17:55.241Z,2.90
2019-05-25T19:20:23.595Z,2.90
2019-05-25T19:22:55.075Z,2.93
2019-05-25T19:25:23.819Z,2.93
2019-05-25T19:27:52.233Z,3.10
2019-05-25T19:30:20.822Z,3.17
2019-05-25T19:32:49.168Z,2.50
2019-05-25T19:35:17.659Z,2.80
2019-05-25T19:37:46.342Z,2.80
2019-05-25T19:40:15.122Z,4.50
2019-05-25T19:42:43.493Z,3.30
2019-05-25T19:45:12.376Z,3.10
2019-05-25T19:47:41.091Z,3.40
2019-05-25T19:50:10.315Z,2.83
2019-05-25T19:52:38.690Z,2.90
2019-05-25T19:55:07.306Z,2.73
2019-05-25T19:57:36.012Z,2.30
2019-05-25T20:00:05.357Z,2.90
2019-05-25T20:02:33.900Z,3.10
2019-05-25T20:05:15.083Z,3.03
2019-05-25T20:07:32.835Z,2.93
2019-05-25T20:10:01.269Z,2.70
2019-05-25T20:12:29.820Z,2.77
2019-05-25T20:14:58.377Z,2.77
2019-05-25T20:17:26.842Z,2.87
2019-05-25T20:19:55.658Z,2.60
2019-05-25T20:22:24.161Z,2.80
2019-05-25T20:24:52.850Z,2.70
2019-05-25T20:27:21.249Z,2.40
2019-05-25T20:29:49.598Z,2.30
2019-05-25T20:32:17.916Z,3.83
2019-05-25T20:34:46.348Z,2.47
2019-05-25T20:37:14.833Z,3.40
2019-05-25T20:39:43.634Z,3.53
2019-05-25T20:42:14.986Z,3.50
2019-05-25T20:44:42.863Z,3.17
2019-05-25T20:47:11.374Z,3.50
2019-05-25T20:49:40.259Z,3.57
2019-05-25T20:52:08.790Z,4.00
2019-05-25T20:54:37.116Z,3.77
2019-05-25T20:57:05.471Z,3.53
2019-05-25T20:59:34.432Z,4.07
2019-05-25T21:02:02.878Z,3.73
2019-05-25T21:04:31.209Z,3.73
2019-05-25T21:07:00.151Z,4.93
2019-05-25T21:09:28.501Z,3.83
2019-05-25T21:11:56.834Z,3.60
2019-05-25T21:14:25.432Z,3.40
2019-05-25T21:16:53.765Z,3.70
2019-05-25T21:19:22.385Z,3.30
2019-05-25T21:21:50.722Z,3.57
2019-05-25T21:24:19.058Z,3.37
2019-05-25T21:26:47.376Z,3.83
2019-05-25T21:29:15.717Z,4.70
2019-05-25T21:31:44.028Z,3.90
2019-05-25T21:34:12.355Z,3.83
2019-05-25T21:36:43.065Z,3.80
2019-05-25T21:39:10.749Z,3.87
2019-05-25T21:41:39.124Z,3.67
2019-05-25T21:44:07.470Z,4.00
2019-05-25T21:46:35.873Z,4.00
2019-05-25T21:49:04.286Z,3.53
2019-05-25T21:51:32.725Z,4.50
2019-05-25T21:54:01.528Z,5.60
2019-05-25T21:56:29.960Z,5.07
2019-05-25T21:58:59.046Z,4.30
2019-05-25T22:01:27.760Z,4.27
2019-05-25T22:03:56.814Z,4.33
2019-05-25T22:06:25.216Z,4.50
2019-05-25T22:08:53.561Z,4.93
2019-05-25T22:11:22.202Z,4.57
2019-05-25T22:13:51.201Z,4.67
2019-05-25T22:16:19.994Z,4.60
2019-05-25T22:18:48.582Z,4.87
2019-05-25T22:21:17.217Z,3.87
2019-05-25T22:23:45.569Z,4.80
2019-05-25T22:26:13.906Z,4.80
2019-05-25T22:28:45.138Z,4.77
2019-05-25T22:31:12.341Z,6.73
2019-05-25T22:33:40.814Z,4.13
2019-05-25T22:36:09.319Z,4.67
2019-05-25T22:38:37.743Z,5.00
2019-05-25T22:41:06.050Z,4.17
2019-05-25T22:43:34.378Z,4.00
2019-05-25T22:46:03.007Z,3.73
2019-05-25T22:48:31.321Z,3.73
2019-05-25T22:50:59.647Z,4.00
2019-05-25T22:53:27.965Z,3.60
2019-05-25T22:55:56.593Z,3.97
2019-05-25T22:58:24.929Z,4.00
2019-05-25T23:00:53.547Z,4.10
2019-05-25T23:03:21.868Z,4.70
2019-05-25T23:05:50.206Z,4.50
2019-05-25T23:08:18.890Z,3.80
2019-05-25T23:10:47.233Z,4.33
2019-05-25T23:13:15.578Z,3.60
2019-05-25T23:15:44.229Z,3.97
2019-05-25T23:18:12.567Z,4.40
2019-05-25T23:20:41.233Z,4.30
2019-05-25T23:23:10.104Z,4.90
2019-05-25T23:25:38.735Z,3.67
2019-05-25T23:28:07.484Z,4.77
2019-05-25T23:30:35.827Z,3.93
2019-05-25T23:33:04.467Z,4.00
2019-05-25T23:35:33.374Z,3.90
2019-05-25T23:38:03.698Z,4.13
2019-05-25T23:40:31.738Z,4.00
2019-05-25T23:43:00.056Z,3.90
2019-05-25T23:45:28.653Z,3.63
2019-05-25T23:47:57.270Z,3.73
2019-05-25T23:50:25.618Z,2.90
2019-05-25T23:52:53.942Z,3.57
2019-05-25T23:55:22.288Z,3.20
2019-05-25T23:57:50.678Z,3.60
